createdAt,value
2022-10-20T00:00:42.125Z,7.20
2022-10-20T00:03:13.314Z,7.20
2022-10-20T00:05:43.381Z,7.20
2022-10-20T00:08:11.801Z,7.20
2022-10-20T00:10:41.553Z,7.20
2022-10-20T00:13:12.393Z,7.10
2022-10-20T00:15:48.338Z,7.20
2022-10-20T00:18:29.276Z,7.00
2022-10-20T00:21:16.301Z,7.40
2022-10-20T00:23:50.855Z,7.10
2022-10-20T00:26:28.126Z,7.20
2022-10-20T00:29:06.905Z,7.20
2022-10-20T00:31:40.095Z,7.20
2022-10-20T00:34:13.977Z,7.20
2022-10-20T00:36:48.852Z,7.20
2022-10-20T00:39:31.677Z,7.30
2022-10-20T00:42:07.143Z,7.30
2022-10-20T00:44:59.803Z,7.40
2022-10-20T00:47:39.126Z,7.40
2022-10-20T00:50:11.328Z,7.50
2022-10-20T00:52:40.995Z,7.50
2022-10-20T00:55:10.885Z,7.40
2022-10-20T00:57:40.599Z,7.50
2022-10-20T01:00:09.400Z,7.50
2022-10-20T01:02:37.708Z,7.50
2022-10-20T01:05:07.319Z,7.40
2022-10-20T01:07:36.007Z,7.40
2022-10-20T01:10:06.267Z,7.20
2022-10-20T01:12:48.076Z,7.30
2022-10-20T01:18:03.663Z,7.30
2022-10-20T01:21:04.420Z,7.30
2022-10-20T01:24:08.257Z,7.30
2022-10-20T01:27:00.940Z,7.30
2022-10-20T01:29:33.897Z,7.30
2022-10-20T01:32:11.283Z,7.30
2022-10-20T01:34:52.188Z,7.20
2022-10-20T01:37:34.293Z,7.20
2022-10-20T01:40:23.670Z,7.20
2022-10-20T01:42:54.600Z,7.20
2022-10-20T01:45:26.777Z,7.10
2022-10-20T01:47:55.649Z,7.10
2022-10-20T01:50:24.909Z,7.10
2022-10-20T01:52:57.440Z,7.00
2022-10-20T01:55:25.830Z,7.00
2022-10-20T01:58:34.390Z,7.10
2022-10-20T02:01:11.818Z,7.10
2022-10-20T02:03:50.054Z,7.30
2022-10-20T02:06:28.691Z,7.20
2022-10-20T02:09:00.728Z,7.20
2022-10-20T02:11:36.519Z,7.20
2022-10-20T02:14:06.773Z,7.10
2022-10-20T02:16:41.629Z,7.10
2022-10-20T02:19:11.710Z,7.10
2022-10-20T02:21:40.038Z,7.10
2022-10-20T02:24:10.652Z,7.10
2022-10-20T02:26:40.498Z,7.10
2022-10-20T02:29:14.600Z,7.00
2022-10-20T02:31:45.229Z,7.10
2022-10-20T02:34:14.028Z,7.10
2022-10-20T02:36:43.914Z,7.10
2022-10-20T02:39:12.184Z,7.10
2022-10-20T02:41:40.165Z,7.10
2022-10-20T02:44:08.234Z,7.10
2022-10-20T02:46:36.232Z,7.00
2022-10-20T02:49:05.596Z,6.90
2022-10-20T02:51:33.620Z,7.00
2022-10-20T02:54:01.587Z,6.90
2022-10-20T02:56:31.056Z,6.80
2022-10-20T02:58:59.457Z,6.80
2022-10-20T03:01:27.523Z,6.80
2022-10-20T03:03:59.535Z,6.70
2022-10-20T03:06:28.917Z,6.70
2022-10-20T03:08:56.980Z,6.70
2022-10-20T03:11:25.377Z,6.70
2022-10-20T03:13:53.345Z,6.70
2022-10-20T03:16:21.380Z,6.60
2022-10-20T03:18:49.574Z,6.60
2022-10-20T03:21:17.632Z,6.60
2022-10-20T03:23:46.964Z,6.60
2022-10-20T03:26:15.224Z,6.60
2022-10-20T03:28:43.154Z,6.60
2022-10-20T03:31:11.473Z,6.60
2022-10-20T03:33:39.571Z,6.60
2022-10-20T03:36:08.140Z,6.70
2022-10-20T03:38:36.149Z,6.80
2022-10-20T03:41:05.574Z,6.90
2022-10-20T03:43:33.523Z,6.90
2022-10-20T03:46:06.459Z,6.90
2022-10-20T03:48:34.872Z,7.00
2022-10-20T03:51:03.299Z,7.00
2022-10-20T03:53:31.580Z,7.00
2022-10-20T03:55:59.579Z,7.10
2022-10-20T03:58:28.857Z,7.10
2022-10-20T04:00:59.956Z,7.00
2022-10-20T04:03:27.937Z,7.10
2022-10-20T04:05:56.211Z,7.10
2022-10-20T04:08:24.298Z,7.10
2022-10-20T04:10:52.421Z,7.10
2022-10-20T04:13:20.657Z,7.10
2022-10-20T04:15:49.931Z,7.20
2022-10-20T04:18:17.892Z,7.10
2022-10-20T04:20:46.288Z,7.10
2022-10-20T04:23:14.203Z,7.10
2022-10-20T04:25:45.549Z,7.20
2022-10-20T04:28:13.725Z,7.30
2022-10-20T04:30:41.922Z,7.30
2022-10-20T04:33:11.724Z,7.30
2022-10-20T04:35:40.136Z,7.30
2022-10-20T04:38:08.319Z,7.40
2022-10-20T04:40:36.358Z,7.40
2022-10-20T04:43:04.423Z,7.40
2022-10-20T04:45:32.366Z,7.50
2022-10-20T04:48:00.318Z,7.50
2022-10-20T04:50:29.730Z,7.60
2022-10-20T04:52:59.463Z,7.50
2022-10-20T04:55:27.482Z,7.60
2022-10-20T04:57:55.446Z,7.40
2022-10-20T05:00:23.389Z,7.60
2022-10-20T05:02:51.374Z,7.60
2022-10-20T05:05:19.380Z,7.60
2022-10-20T05:07:48.705Z,7.60
2022-10-20T05:10:17.886Z,7.60
2022-10-20T05:12:45.846Z,7.80
2022-10-20T05:15:13.852Z,7.50
2022-10-20T05:17:41.810Z,7.60
2022-10-20T05:20:10.408Z,7.60
2022-10-20T05:22:38.752Z,7.60
2022-10-20T05:25:31.205Z,7.60
2022-10-20T05:27:57.343Z,7.60
2022-10-20T05:30:25.357Z,7.60
2022-10-20T05:32:53.280Z,7.70
2022-10-20T05:35:21.628Z,7.70
2022-10-20T05:37:49.735Z,7.70
2022-10-20T05:40:19.104Z,7.80
2022-10-20T05:42:47.123Z,7.80
2022-10-20T05:45:15.434Z,7.80
2022-10-20T05:47:43.812Z,7.80
2022-10-20T05:50:12.470Z,7.80
2022-10-20T05:52:40.399Z,7.80
2022-10-20T05:55:10.108Z,7.80
2022-10-20T05:57:39.554Z,7.80
2022-10-20T06:00:09.113Z,7.90
2022-10-20T06:02:37.709Z,7.90
2022-10-20T06:05:07.463Z,8.00
2022-10-20T06:07:35.585Z,8.00
2022-10-20T06:10:03.682Z,8.10
2022-10-20T06:12:31.667Z,8.20
2022-10-20T06:15:01.020Z,8.20
2022-10-20T06:17:29.030Z,8.30
2022-10-20T06:19:56.997Z,8.30
2022-10-20T06:22:25.059Z,8.30
2022-10-20T06:24:53.093Z,8.30
2022-10-20T06:27:21.118Z,8.40
2022-10-20T06:29:49.119Z,8.40
2022-10-20T06:32:18.814Z,8.50
2022-10-20T06:34:46.937Z,8.60
2022-10-20T06:37:15.007Z,8.60
2022-10-20T06:39:42.963Z,8.70
2022-10-20T06:42:12.241Z,8.80
2022-10-20T06:44:40.715Z,8.80
2022-10-20T06:47:10.295Z,8.90
2022-10-20T06:49:39.643Z,9.00
2022-10-20T06:52:07.706Z,9.00
2022-10-20T06:54:35.881Z,9.00
2022-10-20T06:57:03.899Z,9.10
2022-10-20T06:59:32.091Z,9.10
2022-10-20T07:02:02.036Z,9.20
2022-10-20T07:04:30.126Z,9.30
2022-10-20T07:06:59.720Z,9.40
2022-10-20T07:09:27.777Z,9.50
2022-10-20T07:11:56.140Z,9.50
2022-10-20T07:14:24.164Z,9.60
2022-10-20T07:16:57.594Z,9.60
2022-10-20T07:19:29.497Z,9.70
2022-10-20T07:22:03.858Z,9.70
2022-10-20T07:24:32.357Z,9.80
2022-10-20T07:27:03.651Z,9.70
2022-10-20T07:32:01.421Z,10.00
2022-10-20T07:34:30.876Z,10.00
2022-10-20T07:37:00.424Z,10.10
2022-10-20T07:39:28.895Z,10.30
2022-10-20T07:41:56.978Z,10.20
2022-10-20T07:44:25.152Z,10.30
2022-10-20T07:46:53.188Z,10.30
2022-10-20T07:52:10.704Z,10.50
2022-10-20T07:54:38.706Z,10.60
2022-10-20T07:57:06.835Z,10.70
2022-10-20T07:59:34.840Z,10.70
2022-10-20T08:02:03.102Z,10.80
2022-10-20T08:04:32.049Z,10.90
2022-10-20T08:07:00.897Z,10.90
2022-10-20T08:09:30.352Z,11.00
2022-10-20T08:11:58.502Z,11.10
2022-10-20T08:14:30.701Z,11.10
2022-10-20T08:17:01.920Z,11.20
2022-10-20T08:22:30.922Z,11.30
2022-10-20T08:25:00.344Z,11.40
2022-10-20T08:27:28.598Z,11.50
2022-10-20T08:30:06.127Z,11.60
2022-10-20T08:32:44.882Z,11.70
2022-10-20T08:35:12.824Z,11.80
2022-10-20T08:37:40.886Z,11.80
2022-10-20T08:40:15.101Z,11.90
2022-10-20T08:42:45.259Z,12.10
2022-10-20T08:45:17.700Z,12.30
2022-10-20T08:47:48.058Z,12.70
2022-10-20T08:50:18.940Z,13.20
2022-10-20T08:52:52.161Z,13.80
2022-10-20T08:55:26.370Z,14.20
2022-10-20T08:58:01.417Z,14.30
2022-10-20T09:00:31.786Z,14.40
2022-10-20T09:03:08.201Z,14.40
2022-10-20T09:05:36.891Z,14.30
2022-10-20T09:08:05.369Z,14.30
2022-10-20T09:10:38.650Z,14.40
2022-10-20T09:13:18.664Z,14.60
2022-10-20T09:15:46.888Z,14.90
2022-10-20T09:18:16.585Z,15.10
2022-10-20T09:20:50.239Z,15.50
2022-10-20T09:23:39.959Z,15.80
2022-10-20T09:26:25.001Z,15.90
2022-10-20T09:29:15.346Z,16.20
2022-10-20T09:31:45.740Z,16.40
2022-10-20T09:34:25.371Z,16.50
2022-10-20T09:36:59.177Z,16.50
2022-10-20T09:39:30.782Z,16.60
2022-10-20T09:42:05.773Z,16.70
2022-10-20T09:44:49.488Z,16.70
2022-10-20T09:47:18.773Z,16.60
2022-10-20T09:49:47.683Z,16.20
2022-10-20T09:52:20.147Z,15.80
2022-10-20T09:54:51.039Z,15.40
2022-10-20T09:57:22.567Z,15.20
2022-10-20T09:59:53.496Z,15.10
2022-10-20T10:02:30.958Z,15.00
2022-10-20T10:05:19.168Z,14.90
2022-10-20T10:07:59.316Z,14.80
2022-10-20T10:10:29.912Z,14.90
2022-10-20T10:13:33.788Z,14.80
2022-10-20T10:16:09.079Z,14.70
2022-10-20T10:18:38.739Z,15.00
2022-10-20T10:21:09.127Z,15.40
2022-10-20T10:23:50.429Z,16.00
2022-10-20T10:26:46.845Z,16.50
2022-10-20T10:29:27.678Z,16.30
2022-10-20T10:32:01.448Z,15.80
2022-10-20T10:34:46.458Z,15.40
2022-10-20T10:37:17.276Z,15.00
2022-10-20T10:39:45.892Z,14.80
2022-10-20T10:42:38.032Z,14.50
2022-10-20T10:45:18.688Z,14.30
2022-10-20T10:48:27.137Z,14.00
2022-10-20T10:50:59.673Z,14.00
2022-10-20T10:53:47.510Z,13.90
2022-10-20T10:56:24.642Z,13.80
2022-10-20T10:58:59.401Z,13.80
2022-10-20T11:01:45.155Z,13.80
2022-10-20T11:04:55.272Z,13.90
2022-10-20T11:07:32.124Z,14.00
2022-10-20T11:10:12.033Z,14.00
2022-10-20T11:13:13.742Z,14.10
2022-10-20T11:16:02.627Z,14.10
2022-10-20T11:18:53.646Z,14.10
2022-10-20T11:21:37.688Z,14.10
2022-10-20T11:24:30.244Z,14.20
2022-10-20T11:27:04.333Z,14.30
2022-10-20T11:29:37.556Z,14.30
2022-10-20T11:32:15.490Z,14.30
2022-10-20T11:34:55.248Z,14.50
2022-10-20T11:37:26.532Z,14.60
2022-10-20T11:40:05.990Z,14.60
2022-10-20T11:42:42.879Z,14.60
2022-10-20T11:45:33.046Z,14.50
2022-10-20T11:48:08.201Z,14.60
2022-10-20T11:50:38.932Z,14.60
2022-10-20T11:53:29.929Z,14.60
2022-10-20T11:56:29.459Z,14.60
2022-10-20T11:59:44.920Z,14.60
2022-10-20T12:02:55.420Z,14.50
2022-10-20T12:05:46.870Z,14.60
2022-10-20T12:08:35.122Z,14.60
2022-10-20T12:11:10.894Z,14.70
2022-10-20T12:13:47.101Z,14.60
2022-10-20T12:16:53.912Z,14.60
2022-10-20T12:19:24.222Z,14.50
2022-10-20T12:21:57.564Z,14.40
2022-10-20T12:24:35.337Z,14.40
2022-10-20T12:27:18.860Z,14.20
2022-10-20T12:29:58.909Z,14.20
2022-10-20T12:32:39.658Z,14.00
2022-10-20T12:35:52.861Z,13.90
2022-10-20T12:38:24.460Z,13.70
2022-10-20T12:41:00.928Z,13.60
2022-10-20T12:43:45.896Z,13.50
2022-10-20T12:46:22.080Z,13.50
2022-10-20T12:48:57.427Z,13.40
2022-10-20T12:51:40.741Z,13.40
2022-10-20T12:54:22.635Z,13.30
2022-10-20T12:56:51.848Z,13.30
2022-10-20T12:59:41.497Z,13.30
2022-10-20T13:02:50.747Z,13.30
2022-10-20T13:05:54.295Z,13.30
2022-10-20T13:08:28.768Z,13.40
2022-10-20T13:11:19.113Z,13.40
2022-10-20T13:14:03.086Z,13.40
2022-10-20T13:16:34.135Z,13.40
2022-10-20T13:19:02.586Z,13.40
2022-10-20T13:21:34.493Z,13.40
2022-10-20T13:24:15.164Z,13.30
2022-10-20T13:26:51.240Z,13.30
2022-10-20T13:29:28.200Z,13.20
2022-10-20T13:32:14.449Z,13.10
2022-10-20T13:34:53.394Z,13.10
2022-10-20T13:37:48.992Z,13.10
2022-10-20T13:40:24.379Z,13.00
2022-10-20T13:43:12.218Z,13.00
2022-10-20T13:45:59.237Z,13.00
2022-10-20T13:48:39.310Z,13.00
2022-10-20T13:51:14.034Z,13.00
2022-10-20T13:53:46.957Z,13.00
2022-10-20T13:56:25.763Z,13.00
2022-10-20T13:59:05.794Z,13.00
2022-10-20T14:01:37.136Z,13.00
2022-10-20T14:04:24.672Z,13.00
2022-10-20T14:06:53.318Z,12.90
2022-10-20T14:09:23.668Z,13.00
2022-10-20T14:11:55.934Z,12.90
2022-10-20T14:14:28.753Z,12.90
2022-10-20T14:17:01.134Z,12.90
2022-10-20T14:19:31.044Z,12.90
2022-10-20T14:22:01.338Z,12.90
2022-10-20T14:24:33.541Z,12.90
2022-10-20T14:27:06.241Z,12.80
2022-10-20T14:29:40.727Z,12.90
2022-10-20T14:32:13.995Z,12.90
2022-10-20T14:34:56.901Z,12.90
2022-10-20T14:37:31.223Z,12.80
2022-10-20T14:40:02.113Z,12.80
2022-10-20T14:42:32.406Z,12.70
2022-10-20T14:45:04.011Z,12.70
2022-10-20T14:47:40.148Z,12.70
2022-10-20T14:50:20.266Z,12.60
2022-10-20T14:52:53.694Z,12.50
2022-10-20T14:55:36.951Z,12.40
2022-10-20T14:58:05.292Z,12.40
2022-10-20T15:00:37.383Z,12.30
2022-10-20T15:03:07.843Z,12.30
2022-10-20T15:05:42.258Z,12.30
2022-10-20T15:08:26.868Z,12.20
2022-10-20T15:10:55.431Z,12.20
2022-10-20T15:13:30.124Z,12.20
2022-10-20T15:16:01.513Z,12.10
2022-10-20T15:18:30.873Z,12.10
2022-10-20T15:20:59.852Z,12.10
2022-10-20T15:23:29.843Z,12.10
2022-10-20T15:26:03.684Z,12.10
2022-10-20T15:28:36.904Z,12.10
2022-10-20T15:31:08.774Z,12.00
2022-10-20T15:33:36.842Z,12.00
2022-10-20T15:36:07.150Z,12.00
2022-10-20T15:38:35.186Z,12.00
2022-10-20T15:41:03.180Z,11.90
2022-10-20T15:43:31.469Z,11.90
2022-10-20T15:45:59.606Z,11.90
2022-10-20T15:48:29.137Z,11.90
2022-10-20T15:50:59.711Z,11.90
2022-10-20T15:53:30.035Z,11.80
2022-10-20T15:55:59.170Z,11.90
2022-10-20T15:58:28.486Z,11.80
2022-10-20T16:00:57.427Z,11.80
2022-10-20T16:03:25.622Z,11.80
2022-10-20T16:05:55.005Z,11.80
2022-10-20T16:08:23.638Z,11.80
2022-10-20T16:10:51.904Z,11.80
2022-10-20T16:13:21.400Z,11.70
2022-10-20T16:15:49.864Z,11.80
2022-10-20T16:18:18.170Z,11.80
2022-10-20T16:20:46.302Z,11.80
2022-10-20T16:23:15.716Z,11.80
2022-10-20T16:25:44.136Z,11.80
2022-10-20T16:28:12.409Z,11.80
2022-10-20T16:30:41.223Z,11.80
2022-10-20T16:33:09.363Z,11.80
2022-10-20T16:35:44.003Z,11.80
2022-10-20T16:38:12.966Z,11.80
2022-10-20T16:40:42.546Z,11.80
2022-10-20T16:43:10.665Z,11.80
2022-10-20T16:45:42.600Z,11.80
2022-10-20T16:48:13.190Z,11.80
2022-10-20T16:50:43.112Z,11.80
2022-10-20T16:53:11.306Z,11.80
2022-10-20T16:55:39.328Z,11.80
2022-10-20T16:58:09.238Z,11.80
2022-10-20T17:00:37.347Z,11.80
2022-10-20T17:03:05.521Z,11.80
2022-10-20T17:05:33.892Z,11.80
2022-10-20T17:08:02.192Z,11.80
2022-10-20T17:10:30.415Z,11.80
2022-10-20T17:12:58.622Z,11.80
2022-10-20T17:15:29.292Z,11.90
2022-10-20T17:17:58.976Z,11.80
2022-10-20T17:20:27.007Z,11.90
2022-10-20T17:22:56.371Z,11.90
2022-10-20T17:25:25.572Z,11.90
2022-10-20T17:27:53.795Z,11.90
2022-10-20T17:30:22.687Z,11.90
2022-10-20T17:32:52.705Z,11.90
2022-10-20T17:35:21.272Z,11.90
2022-10-20T17:37:49.619Z,11.90
2022-10-20T17:40:22.095Z,11.80
2022-10-20T17:42:51.122Z,11.90
2022-10-20T17:45:20.288Z,11.80
2022-10-20T17:47:48.546Z,11.90
2022-10-20T17:50:18.195Z,11.90
2022-10-20T17:52:46.413Z,11.90
2022-10-20T17:55:14.584Z,11.90
2022-10-20T17:57:42.737Z,11.90
2022-10-20T18:00:19.113Z,11.90
2022-10-20T18:02:52.178Z,11.90
2022-10-20T18:05:21.793Z,11.90
2022-10-20T18:07:49.938Z,11.90
2022-10-20T18:10:18.232Z,11.90
2022-10-20T18:12:47.892Z,11.90
2022-10-20T18:15:16.122Z,11.90
2022-10-20T18:17:45.148Z,11.90
2022-10-20T18:20:13.435Z,11.90
2022-10-20T18:22:42.977Z,11.90
2022-10-20T18:25:11.427Z,11.80
2022-10-20T18:27:40.004Z,11.90
2022-10-20T18:30:09.992Z,11.90
2022-10-20T18:32:39.615Z,11.80
2022-10-20T18:35:08.980Z,11.80
2022-10-20T18:37:37.771Z,11.80
2022-10-20T18:40:09.834Z,11.80
2022-10-20T18:42:38.195Z,11.80
2022-10-20T18:45:07.337Z,11.80
2022-10-20T18:47:36.622Z,11.70
2022-10-20T18:50:05.438Z,11.70
2022-10-20T18:52:33.845Z,11.70
2022-10-20T18:55:04.185Z,11.70
2022-10-20T18:57:39.358Z,11.50
2022-10-20T19:00:09.323Z,11.70
2022-10-20T19:02:37.873Z,11.70
2022-10-20T19:05:07.378Z,11.70
2022-10-20T19:07:38.779Z,11.70
2022-10-20T19:10:10.826Z,11.70
2022-10-20T19:12:40.899Z,11.70
2022-10-20T19:15:09.889Z,11.70
2022-10-20T19:17:38.148Z,11.80
2022-10-20T19:20:09.076Z,11.80
2022-10-20T19:22:39.983Z,11.80
2022-10-20T19:25:12.264Z,11.80
2022-10-20T19:27:42.196Z,11.80
2022-10-20T19:30:11.282Z,11.80
2022-10-20T19:32:42.909Z,11.70
2022-10-20T19:35:12.310Z,11.70
2022-10-20T19:37:40.552Z,11.60
2022-10-20T19:40:09.415Z,11.60
2022-10-20T19:42:40.391Z,11.50
2022-10-20T19:45:10.653Z,11.60
2022-10-20T19:47:40.110Z,11.50
2022-10-20T19:50:11.295Z,11.50
2022-10-20T19:52:40.531Z,11.50
2022-10-20T19:55:09.418Z,11.40
2022-10-20T19:57:37.896Z,11.40
2022-10-20T20:00:15.370Z,11.40
2022-10-20T20:02:43.950Z,11.60
2022-10-20T20:05:12.281Z,11.30
2022-10-20T20:07:40.671Z,11.30
2022-10-20T20:10:10.632Z,11.30
2022-10-20T20:12:39.053Z,11.30
2022-10-20T20:15:08.009Z,11.30
2022-10-20T20:17:38.025Z,11.30
2022-10-20T20:20:07.252Z,11.30
2022-10-20T20:22:35.817Z,11.30
2022-10-20T20:25:04.333Z,11.30
2022-10-20T20:27:32.675Z,11.30
2022-10-20T20:30:03.680Z,11.30
2022-10-20T20:32:33.356Z,11.30
2022-10-20T20:37:32.240Z,11.40
2022-10-20T20:40:00.409Z,11.40
2022-10-20T20:42:31.887Z,11.40
2022-10-20T20:45:02.043Z,11.40
2022-10-20T20:47:35.131Z,11.40
2022-10-20T20:50:09.466Z,11.40
2022-10-20T20:52:37.912Z,11.50
2022-10-20T20:55:06.914Z,11.50
2022-10-20T20:57:37.602Z,11.60
2022-10-20T21:00:09.841Z,11.70
2022-10-20T21:02:38.125Z,11.80
2022-10-20T21:05:09.401Z,11.80
2022-10-20T21:07:38.048Z,11.90
2022-10-20T21:10:07.343Z,12.00
2022-10-20T21:12:35.936Z,12.10
2022-10-20T21:15:05.319Z,12.20
2022-10-20T21:17:36.629Z,12.20
2022-10-20T21:20:06.316Z,12.00
2022-10-20T21:22:36.497Z,12.40
2022-10-20T21:25:05.262Z,12.40
2022-10-20T21:27:33.386Z,12.50
2022-10-20T21:30:01.577Z,12.50
2022-10-20T21:32:29.601Z,12.50
2022-10-20T21:34:57.714Z,12.50
2022-10-20T21:37:25.963Z,12.50
2022-10-20T21:39:55.501Z,12.70
2022-10-20T21:42:23.699Z,12.50
2022-10-20T21:44:51.887Z,12.30
2022-10-20T21:47:19.979Z,12.50
2022-10-20T21:49:48.195Z,12.50
2022-10-20T21:52:16.229Z,12.50
2022-10-20T21:54:44.274Z,12.50
2022-10-20T21:57:15.414Z,12.50
2022-10-20T21:59:46.815Z,12.50
2022-10-20T22:02:15.333Z,12.50
2022-10-20T22:04:43.623Z,12.50
2022-10-20T22:07:11.648Z,12.60
2022-10-20T22:09:39.741Z,12.60
2022-10-20T22:12:08.093Z,12.60
2022-10-20T22:14:37.520Z,12.60
2022-10-20T22:17:05.595Z,12.60
2022-10-20T22:19:33.659Z,12.60
2022-10-20T22:22:01.865Z,12.70
2022-10-20T22:24:30.661Z,12.70
2022-10-20T22:26:58.795Z,12.70
2022-10-20T22:29:26.809Z,12.80
2022-10-20T22:31:56.298Z,12.80
2022-10-20T22:34:24.494Z,12.80
2022-10-20T22:36:52.635Z,12.80
2022-10-20T22:39:20.743Z,12.90
2022-10-20T22:41:48.770Z,12.90
2022-10-20T22:44:16.768Z,12.90
2022-10-20T22:46:44.793Z,12.80
2022-10-20T22:49:15.095Z,12.80
2022-10-20T22:51:43.080Z,12.80
2022-10-20T22:54:11.105Z,12.80
2022-10-20T22:56:39.133Z,12.80
2022-10-20T22:59:07.218Z,12.80
2022-10-20T23:01:35.269Z,12.80
2022-10-20T23:04:05.277Z,12.80
2022-10-20T23:06:34.720Z,12.80
2022-10-20T23:09:02.985Z,12.70
2022-10-20T23:11:31.351Z,12.80
2022-10-20T23:13:59.664Z,12.80
2022-10-20T23:16:27.797Z,12.80
2022-10-20T23:18:55.796Z,12.80
2022-10-20T23:21:23.999Z,12.80
2022-10-20T23:23:53.519Z,12.70
2022-10-20T23:26:21.649Z,12.80
2022-10-20T23:28:49.834Z,12.80
2022-10-20T23:31:20.521Z,12.80
2022-10-20T23:33:50.384Z,12.80
2022-10-20T23:36:18.919Z,12.80
2022-10-20T23:38:47.713Z,12.80
2022-10-20T23:41:17.394Z,12.90
2022-10-20T23:43:45.624Z,12.90
2022-10-20T23:46:13.885Z,12.90
2022-10-20T23:48:42.280Z,13.00
2022-10-20T23:51:10.410Z,13.00
2022-10-20T23:53:38.566Z,13.00
2022-10-20T23:56:07.501Z,13.10
2022-10-20T23:58:37.291Z,13.10
